Time;durP1;ratioP1;P1;durP2;ratioP2;P2;SDS_P1;SDS_P2;PMS_P1;PMS_P2;Temp;Humidity;BMP_temperature;BMP_pressure;BME280_temperature;BME280_humidity;BME280_pressure;Samples;Min_cycle;Max_cycle;Signal;HPM_P1;HPM_P2
2022/04/02 09:53:59;;;;;;;4.93;3.33;;;;;;;2.14;62.87;101316.34;5132252;27;20129;-73
2022/04/02 09:56:39;;;;;;;8.32;4.55;;;;;;;2.67;59.36;101323.84;5111295;28;20088;-75
2022/04/02 09:59:06;;;;;;;5.85;3.90;;;;;;;3.21;60.69;101320.53;5125835;27;20135;-75
2022/04/02 10:01:51;;;;;;;5.70;3.58;;;;;;;3.82;58.61;101316.00;5125637;27;20414;-74
2022/04/02 10:04:32;;;;;;;6.28;3.90;;;;;;;4.27;57.83;101316.31;5116440;27;20055;-75
2022/04/02 10:07:04;;;;;;;6.80;3.55;;;;;;;4.67;57.28;101315.81;5100874;28;20540;-74
2022/04/02 10:09:34;;;;;;;5.63;3.60;;;;;;;4.97;55.69;101321.91;5111044;27;20071;-74
2022/04/02 10:12:05;;;;;;;6.22;3.80;;;;;;;5.30;55.52;101327.84;5125481;28;20043;-74
2022/04/02 10:14:34;;;;;;;5.90;3.60;;;;;;;5.46;54.47;101326.34;5131536;27;20039;-75
2022/04/02 10:17:04;;;;;;;5.10;3.55;;;;;;;5.75;53.75;101322.53;5121725;27;20130;-74
2022/04/02 10:19:33;;;;;;;6.07;3.60;;;;;;;5.94;53.24;101338.84;5119142;27;20761;-75
2022/04/02 10:22:06;;;;;;;6.65;3.17;;;;;;;6.13;51.90;101330.91;5123494;27;20139;-75
2022/04/02 10:24:38;;;;;;;5.88;3.70;;;;;;;6.19;48.60;101331.53;5119580;27;20047;-74
2022/04/02 10:27:09;;;;;;;6.30;3.90;;;;;;;6.29;50.35;101323.94;5123115;27;20054;-75
2022/04/02 10:29:57;;;;;;;5.93;3.60;;;;;;;6.49;48.03;101327.56;5112483;27;20056;-74
2022/04/02 10:32:45;;;;;;;5.30;3.53;;;;;;;6.62;48.23;101330.59;5106910;28;20050;-75
2022/04/02 10:35:13;;;;;;;5.00;3.13;;;;;;;6.70;50.00;101328.44;5109395;28;20048;-74
2022/04/02 10:38:18;;;;;;;4.82;3.40;;;;;;;6.77;46.57;101331.75;5122424;28;20100;-75
2022/04/02 10:40:52;;;;;;;4.97;3.17;;;;;;;6.81;47.32;101322.59;5103259;28;20056;-75
2022/04/02 10:43:26;;;;;;;4.60;3.35;;;;;;;6.91;47.62;101320.38;5115130;27;20550;-76
2022/04/02 10:45:53;;;;;;;5.97;3.28;;;;;;;6.97;48.79;101320.09;5094169;28;20051;-76
2022/04/02 10:48:53;;;;;;;5.35;3.72;;;;;;;6.95;44.84;101322.84;5100520;27;20056;-77
2022/04/02 10:51:26;;;;;;;4.80;3.35;;;;;;;6.98;45.81;101316.44;5117807;28;20079;-75
2022/04/02 10:54:02;;;;;;;5.63;3.40;;;;;;;7.03;45.50;101323.38;5113198;27;20561;-74
2022/04/02 10:56:34;;;;;;;5.20;3.40;;;;;;;7.13;46.38;101316.63;5124741;27;20051;-76
2022/04/02 10:59:01;;;;;;;5.78;3.58;;;;;;;7.13;47.09;101321.16;5122477;27;20047;-76
2022/04/02 11:01:30;;;;;;;4.90;3.50;;;;;;;7.14;46.34;101313.00;5125264;27;20074;-74
2022/04/02 11:03:57;;;;;;;5.18;3.80;;;;;;;7.22;47.28;101321.63;5115807;27;20051;-76
2022/04/02 11:06:50;;;;;;;4.72;3.40;;;;;;;7.25;43.28;101313.34;5106293;28;20040;-76
2022/04/02 11:09:39;;;;;;;6.53;3.70;;;;;;;7.32;43.60;101323.91;5097963;28;20131;-72
2022/04/02 11:12:18;;;;;;;5.20;3.50;;;;;;;7.32;43.40;101319.38;5108578;27;20078;-75
2022/04/02 11:14:49;;;;;;;7.72;3.33;;;;;;;7.38;45.55;101324.50;5113574;27;20770;-73
2022/04/02 11:17:36;;;;;;;5.28;3.10;;;;;;;7.48;44.24;101327.66;5094782;27;20101;-74
2022/04/02 11:20:10;;;;;;;5.10;3.25;;;;;;;7.51;45.82;101332.88;5089594;28;20048;-76
2022/04/02 11:22:57;;;;;;;5.25;3.40;;;;;;;7.58;45.45;101343.34;5122015;27;20051;-75
2022/04/02 11:25:35;;;;;;;5.15;3.42;;;;;;;7.63;46.19;101343.16;5089463;28;20131;-76
2022/04/02 11:28:16;;;;;;;5.93;3.97;;;;;;;7.63;45.42;101337.75;5090634;28;20338;-75
2022/04/02 11:30:47;;;;;;;7.00;4.18;;;;;;;7.58;45.21;101351.44;5088709;28;20082;-76
2022/04/02 11:33:22;;;;;;;5.85;3.80;;;;;;;7.64;45.64;101340.38;5088470;28;20079;-74
2022/04/02 11:35:55;;;;;;;6.35;3.75;;;;;;;7.63;44.28;101343.16;5090228;28;20218;-75
2022/04/02 11:38:25;;;;;;;8.05;4.10;;;;;;;7.55;45.81;101340.81;5088715;28;20051;-75
2022/04/02 11:40:54;;;;;;;6.55;3.95;;;;;;;7.62;46.09;101344.97;5106182;28;20508;-75
2022/04/02 11:43:31;;;;;;;6.55;3.85;;;;;;;7.68;44.57;101341.09;5109950;27;20040;-75
2022/04/02 11:46:00;;;;;;;4.60;3.45;;;;;;;7.70;46.24;101343.72;5098094;28;20079;-73
2022/04/02 11:48:32;;;;;;;6.88;3.75;;;;;;;7.74;45.45;101348.06;5104538;28;20124;-74
2022/04/02 11:51:16;;;;;;;5.80;3.63;;;;;;;7.76;44.61;101349.72;5096123;28;20079;-73
2022/04/02 11:53:44;;;;;;;4.63;3.13;;;;;;;7.78;46.43;101345.13;5098558;28;20138;-74
2022/04/02 11:56:43;;;;;;;5.80;3.45;;;;;;;7.78;43.90;101353.22;5104167;28;20138;-74
2022/04/02 11:59:15;;;;;;;6.30;3.40;;;;;;;7.83;45.44;101355.69;5096064;27;20068;-75
2022/04/02 12:01:48;;;;;;;4.75;3.40;;;;;;;7.80;46.32;101356.75;5099988;28;20389;-75
2022/04/02 12:04:17;;;;;;;5.90;4.15;;;;;;;7.84;45.73;101366.44;5102873;28;20058;-75
2022/04/02 12:06:46;;;;;;;5.53;3.30;;;;;;;7.84;45.93;101368.25;5097639;28;20466;-75
2022/04/02 12:09:23;;;;;;;5.28;3.72;;;;;;;7.84;45.02;101358.34;5104347;28;20055;-72
2022/04/02 12:11:53;;;;;;;5.32;3.67;;;;;;;7.85;46.40;101365.50;5103698;28;20082;-74
2022/04/02 12:14:26;;;;;;;5.03;3.22;;;;;;;7.88;46.26;101365.38;5101323;28;20496;-74
2022/04/02 12:17:00;;;;;;;;;;;;;;;7.62;46.28;101369.28;5099059;28;20079;-74
2022/04/02 12:19:44;;;;;;;4.50;3.30;;;;;;;7.78;45.59;101369.44;5097973;28;19920;-75
2022/04/02 12:22:21;;;;;;;5.80;3.70;;;;;;;7.80;45.95;101367.56;5105272;28;20051;-74
2022/04/02 12:24:50;;;;;;;5.45;3.78;;;;;;;7.80;46.77;101372.09;5097424;28;20055;-73
2022/04/02 12:27:18;;;;;;;5.97;3.80;;;;;;;7.77;47.11;101367.69;5102261;28;20075;-73
2022/04/02 12:29:48;;;;;;;6.13;4.00;;;;;;;7.74;47.06;101377.78;5101121;28;20047;-73
2022/04/02 12:32:34;;;;;;;6.28;3.83;;;;;;;7.73;45.50;101363.38;5100604;28;20591;-73
2022/04/02 12:35:13;;;;;;;5.07;3.80;;;;;;;7.76;46.12;101373.16;5103515;27;20410;-76
2022/04/02 12:37:42;;;;;;;5.35;3.90;;;;;;;7.73;47.21;101371.50;5093516;27;20051;-76
2022/04/02 12:40:22;;;;;;;5.80;3.60;;;;;;;7.78;46.09;101365.88;5102077;28;20059;-73
2022/04/02 12:42:55;;;;;;;5.40;3.70;;;;;;;7.76;45.68;101375.84;5104277;28;20419;-73
2022/04/02 12:45:24;;;;;;;5.85;3.97;;;;;;;7.78;46.66;101368.56;5099885;28;20213;-75
2022/04/02 12:47:57;;;;;;;5.57;3.63;;;;;;;7.77;46.24;101380.31;5104684;27;20067;-74
2022/04/02 12:50:24;;;;;;;6.32;3.70;;;;;;;7.81;47.15;101384.66;5099709;28;20043;-75
2022/04/02 12:52:51;;;;;;;5.93;3.55;;;;;;;7.84;46.82;101373.66;5106809;28;20147;-74
2022/04/02 12:55:21;;;;;;;6.63;3.75;;;;;;;7.85;46.80;101391.66;5102902;28;20540;-79
2022/04/02 12:57:59;;;;;;;5.18;3.75;;;;;;;7.79;43.66;101387.41;5103958;28;20484;-79
2022/04/02 13:00:36;;;;;;;7.57;4.10;;;;;;;7.79;45.26;101392.81;5108475;28;20081;-78
2022/04/02 13:03:05;;;;;;;6.43;4.00;;;;;;;7.84;45.90;101388.06;5109322;28;20039;-77
2022/04/02 13:05:44;;;;;;;5.55;3.80;;;;;;;7.88;44.92;101387.00;5106508;28;20044;-79
2022/04/02 13:08:32;;;;;;;6.25;4.18;;;;;;;7.90;45.29;101384.22;5110050;28;20217;-78
2022/04/02 13:11:00;;;;;;;5.95;4.20;;;;;;;7.92;45.64;101382.28;5108790;28;20373;-76
2022/04/02 13:13:41;;;;;;;5.50;3.97;;;;;;;7.86;44.20;101397.00;5108273;28;20514;-76
2022/04/02 13:16:10;;;;;;;5.50;3.92;;;;;;;7.83;45.11;101380.03;5107916;28;20142;-76
2022/04/02 13:21:33;;;;;;;6.22;3.92;;;;;;;7.83;44.79;101378.19;5108844;27;20131;-75
2022/04/02 13:24:27;;;;;;;5.90;4.03;;;;;;;7.81;44.42;101388.22;5108212;28;20075;-76
2022/04/02 13:27:36;;;;;;;5.88;3.80;;;;;;;7.79;43.65;101387.41;5107394;28;20097;-75
2022/04/02 13:30:10;;;;;;;6.22;4.25;;;;;;;7.83;45.06;101399.81;5107071;28;20478;-75
2022/04/02 13:33:01;;;;;;;6.47;3.95;;;;;;;7.88;44.37;101389.69;5108890;28;20092;-75
2022/04/02 13:35:33;;;;;;;5.40;3.53;;;;;;;7.86;45.64;101396.13;5106267;28;20507;-76
2022/04/02 13:38:28;;;;;;;6.00;3.50;;;;;;;7.82;43.19;101399.94;5108526;28;20097;-76
2022/04/02 13:41:01;;;;;;;5.60;3.45;;;;;;;7.85;45.28;101381.72;5107119;28;20044;-74
2022/04/02 13:43:34;;;;;;;6.70;4.13;;;;;;;7.87;45.68;101382.53;5087905;28;20097;-75
2022/04/02 13:46:13;;;;;;;6.15;4.00;;;;;;;7.84;44.25;101379.09;5086790;28;20070;-75
2022/04/02 13:49:01;;;;;;;5.72;3.50;;;;;;;7.89;44.94;101372.53;5085712;28;20048;-75
2022/04/02 13:51:51;;;;;;;5.47;3.50;;;;;;;7.95;44.40;101369.53;5086080;28;20308;-76
2022/04/02 13:54:31;;;;;;;5.38;3.70;;;;;;;7.90;43.73;101382.41;5087097;28;20109;-76
2022/04/02 13:57:06;;;;;;;5.28;3.50;;;;;;;7.95;43.56;101379.47;5087052;28;20510;-75
2022/04/02 13:59:49;;;;;;;6.07;3.60;;;;;;;7.94;44.40;101375.00;5086704;28;20353;-76
2022/04/02 14:02:30;;;;;;;5.10;3.03;;;;;;;7.99;43.67;101375.63;5086659;28;20101;-76
2022/04/02 14:05:00;;;;;;;5.18;3.45;;;;;;;8.05;44.56;101374.50;5085674;28;20087;-76
2022/04/02 14:07:30;;;;;;;5.50;3.78;;;;;;;8.06;44.12;101363.59;5086841;28;20131;-76
2022/04/02 14:10:11;;;;;;;4.00;3.20;;;;;;;8.13;42.76;101369.59;5085653;28;20060;-75
2022/04/02 14:12:43;;;;;;;4.88;3.50;;;;;;;8.14;44.44;101372.22;5086278;28;20140;-76
2022/04/02 14:15:16;;;;;;;4.72;3.20;;;;;;;8.19;44.02;101366.56;5087085;28;20637;-76
2022/04/02 14:17:44;;;;;;;4.45;3.00;;;;;;;8.22;44.74;101370.03;5091485;28;20488;-76
2022/04/02 14:20:13;;;;;;;5.18;3.42;;;;;;;8.25;44.29;101377.09;5105596;28;20051;-77
2022/04/02 14:23:21;;;;;;;5.57;3.58;;;;;;;8.28;42.94;101371.53;5108418;28;20165;-77
2022/04/02 14:26:24;;;;;;;4.97;3.10;;;;;;;8.34;41.88;101364.03;5067045;28;20083;-77
2022/04/02 14:29:02;;;;;;;6.50;3.65;;;;;;;8.38;42.85;101367.47;5106386;28;20131;-75
2022/04/02 14:32:00;;;;;;;5.35;3.28;;;;;;;8.44;42.38;101367.16;5106604;28;20081;-76
2022/04/02 14:34:50;;;;;;;5.22;3.20;;;;;;;8.45;42.18;101363.50;5105982;28;20052;-77
2022/04/02 14:37:44;;;;;;;5.18;3.42;;;;;;;8.46;42.11;101375.22;5108333;28;20075;-75
2022/04/02 14:40:13;;;;;;;6.03;3.20;;;;;;;8.47;43.51;101371.56;5077769;23;20085;-73
2022/04/02 14:43:24;;;;;;;5.07;3.20;;;;;;;8.45;40.74;101370.75;5011463;28;20050;-72
2022/04/02 14:46:35;;;;;;;6.15;3.40;;;;;;;8.46;41.75;101369.78;4975601;28;20050;-73
2022/04/02 14:49:32;;;;;;;4.95;3.00;;;;;;;8.44;40.87;101374.41;5009729;28;20049;-72
2022/04/02 14:52:41;;;;;;;4.82;3.10;;;;;;;8.43;41.56;101378.06;5009931;28;20050;-73
2022/04/02 14:55:10;;;;;;;5.50;3.33;;;;;;;8.42;43.25;101369.06;4977112;28;20540;-73
2022/04/02 14:58:07;;;;;;;5.55;3.10;;;;;;;8.46;41.53;101369.78;5012622;28;20069;-73
2022/04/02 15:00:34;;;;;;;6.03;3.38;;;;;;;8.38;42.96;101365.66;5006148;28;20062;-73
2022/04/02 15:03:26;;;;;;;5.05;3.25;;;;;;;8.46;41.51;101367.09;5010980;28;20489;-73
2022/04/02 15:06:08;;;;;;;4.40;3.15;;;;;;;8.46;41.21;101370.66;5009393;28;20497;-73
2022/04/02 15:09:13;;;;;;;5.23;3.10;;;;;;;8.44;40.74;101363.56;5012021;28;20061;-73
2022/04/02 15:12:04;;;;;;;4.55;2.85;;;;;;;8.44;41.68;101371.69;5011773;28;20796;-73
2022/04/02 15:14:39;;;;;;;6.20;3.28;;;;;;;8.43;42.60;101373.53;5009780;28;20131;-73
2022/04/02 15:17:31;;;;;;;5.65;3.63;;;;;;;8.47;40.71;101366.13;5010263;28;20433;-72
2022/04/02 15:20:07;;;;;;;5.22;3.35;;;;;;;8.50;41.51;101369.56;5007335;28;20136;-73
2022/04/02 15:22:35;;;;;;;5.00;2.80;;;;;;;8.52;42.17;101367.66;5009203;28;20057;-73
2022/04/02 15:25:22;;;;;;;3.78;2.65;;;;;;;8.54;40.66;101371.16;5009960;28;20049;-73
2022/04/02 15:28:18;;;;;;;5.05;2.97;;;;;;;8.54;42.30;101368.47;5011731;28;20045;-73
2022/04/02 15:30:47;;;;;;;5.05;3.00;;;;;;;8.58;42.29;101375.44;5010627;28;20049;-73
2022/04/02 15:33:22;;;;;;;5.32;2.80;;;;;;;8.63;40.96;101369.81;5003830;28;20053;-73
2022/04/02 15:35:54;;;;;;;4.50;3.00;;;;;;;8.63;41.94;101376.13;5017100;28;20042;-74
2022/04/02 15:38:55;;;;;;;4.45;3.05;;;;;;;8.67;40.90;101382.22;5006506;28;20085;-73
2022/04/02 15:41:22;;;;;;;5.88;3.05;;;;;;;8.67;42.15;101380.41;5000669;28;20057;-73
2022/04/02 15:43:49;;;;;;;4.80;3.10;;;;;;;8.70;42.05;101377.56;5007901;28;20407;-73
2022/04/02 15:46:27;;;;;;;4.88;3.00;;;;;;;8.73;40.38;101384.63;5026073;28;20510;-74
2022/04/02 15:49:06;;;;;;;4.57;3.00;;;;;;;8.74;39.90;101380.97;5002377;28;20050;-73
2022/04/02 15:51:33;;;;;;;4.57;2.92;;;;;;;8.74;41.67;101387.25;5012437;28;20073;-73
2022/04/02 15:54:29;;;;;;;4.97;3.00;;;;;;;8.74;39.88;101383.66;5004518;28;20460;-73
2022/04/02 15:57:16;;;;;;;5.93;2.97;;;;;;;8.74;40.26;101389.09;5009637;28;20285;-73
2022/04/02 15:59:48;;;;;;;5.57;3.38;;;;;;;8.73;40.72;101388.22;4999580;28;20050;-73
2022/04/02 16:02:43;;;;;;;4.72;2.70;;;;;;;8.76;40.26;101392.59;5009829;28;20046;-74
2022/04/02 16:05:17;;;;;;;5.68;2.70;;;;;;;8.77;40.90;101400.66;5007508;28;20424;-73
2022/04/02 16:08:05;;;;;;;4.57;2.85;;;;;;;8.77;39.94;101400.66;5006395;28;20057;-73
2022/04/02 16:10:32;;;;;;;5.03;2.92;;;;;;;8.76;41.53;101393.47;5006689;28;20058;-73
2022/04/02 16:13:19;;;;;;;4.70;3.10;;;;;;;8.79;39.74;101403.28;5007534;28;20112;-73
2022/04/02 16:16:06;;;;;;;4.28;3.10;;;;;;;8.81;39.79;101397.81;5005374;28;20050;-73
2022/04/02 16:18:34;;;;;;;4.40;2.92;;;;;;;8.80;41.47;101401.47;5003410;28;20515;-73
2022/04/02 16:21:08;;;;;;;4.10;2.85;;;;;;;8.83;40.28;101399.44;5008617;28;20097;-73
2022/04/02 16:23:37;;;;;;;4.00;2.60;;;;;;;8.83;40.61;101398.56;5007126;28;20046;-73
2022/04/02 16:26:08;;;;;;;4.47;2.35;;;;;;;8.75;39.65;101397.13;5009197;28;20054;-73
2022/04/02 16:28:44;;;;;;;3.65;2.25;;;;;;;8.79;35.88;101395.16;5009685;28;20055;-73
2022/04/02 16:31:11;;;;;;;4.40;2.58;;;;;;;8.77;39.48;101406.06;5002982;28;20060;-73
2022/04/02 16:33:42;;;;;;;3.55;1.92;;;;;;;8.77;38.85;101413.31;5003909;28;20104;-73
2022/04/02 16:36:11;;;;;;;3.70;2.20;;;;;;;8.79;38.27;101408.69;5009683;28;20100;-73
2022/04/02 16:38:51;;;;;;;3.55;2.28;;;;;;;8.78;35.09;101423.19;5008679;28;20061;-73
2022/04/02 16:41:30;;;;;;;3.80;2.30;;;;;;;8.78;35.36;101418.66;5001875;28;20516;-73
2022/04/02 16:44:16;;;;;;;3.92;2.10;;;;;;;8.76;34.54;101431.38;5006072;28;20457;-73
2022/04/02 16:46:43;;;;;;;3.25;2.00;;;;;;;8.72;37.60;101432.50;5009767;28;20100;-73
2022/04/02 16:49:10;;;;;;;4.15;2.08;;;;;;;8.76;38.05;101435.91;5004216;28;20425;-73
2022/04/02 16:51:37;;;;;;;4.55;2.50;;;;;;;8.72;37.43;101442.47;5009265;28;20107;-74
2022/04/02 16:54:09;;;;;;;5.05;2.67;;;;;;;8.72;35.17;101440.63;5003549;28;20073;-73
2022/04/02 16:56:36;;;;;;;3.88;2.63;;;;;;;8.74;38.13;101444.09;5005066;28;20073;-73
2022/04/02 16:59:04;;;;;;;4.00;2.40;;;;;;;8.76;38.15;101446.75;5009950;28;20405;-73
2022/04/02 17:01:38;;;;;;;4.68;2.70;;;;;;;8.77;36.00;101452.09;5006872;28;20490;-73
2022/04/02 17:04:06;;;;;;;4.20;2.60;;;;;;;8.75;38.19;101451.28;5021490;28;20077;-74
2022/04/02 17:06:35;;;;;;;3.85;2.35;;;;;;;8.77;37.87;101448.50;5003381;28;20473;-73
2022/04/02 17:09:07;;;;;;;4.47;2.33;;;;;;;8.81;37.09;101451.94;5006887;28;20054;-73
2022/04/02 17:11:41;;;;;;;3.53;2.35;;;;;;;8.78;35.44;101453.84;5003210;28;20176;-73
2022/04/02 17:14:08;;;;;;;3.45;1.92;;;;;;;8.78;37.80;101456.56;5008805;28;20081;-73
2022/04/02 17:16:40;;;;;;;3.60;2.50;;;;;;;8.77;37.59;101460.22;5024243;28;20077;-73
2022/04/02 17:19:25;;;;;;;4.22;2.72;;;;;;;8.75;35.55;101451.28;5008556;28;20567;-73
2022/04/02 17:22:08;;;;;;;3.80;2.47;;;;;;;8.75;36.68;101454.00;5006403;28;20081;-73
2022/04/02 17:24:36;;;;;;;4.22;2.50;;;;;;;8.74;37.46;101456.75;5004974;28;20084;-73
2022/04/02 17:27:12;;;;;;;4.13;2.50;;;;;;;8.75;35.98;101462.09;5003554;28;20406;-73
2022/04/02 17:29:40;;;;;;;4.18;2.10;;;;;;;8.75;37.63;101455.81;5001775;28;20144;-73
2022/04/02 17:32:10;;;;;;;4.03;1.95;;;;;;;8.74;37.65;101464.88;5007138;28;20084;-73
2022/04/02 17:35:04;;;;;;;3.67;2.28;;;;;;;8.73;34.82;101464.00;5009253;28;20452;-73
2022/04/02 17:37:38;;;;;;;;;;;;;;;8.50;36.80;101463.38;5006473;28;20045;-73
2022/04/02 17:40:12;;;;;;;3.90;2.30;;;;;;;8.68;37.38;101470.63;4977540;28;20455;-73
2022/04/02 17:42:48;;;;;;;4.43;2.70;;;;;;;8.72;36.63;101473.13;5005176;28;20054;-73
2022/04/02 17:45:16;;;;;;;5.35;2.97;;;;;;;8.73;37.54;101479.38;5004082;28;20116;-73
2022/04/02 17:47:46;;;;;;;5.63;3.55;;;;;;;8.73;37.84;101474.84;5009257;28;20085;-73
2022/04/02 17:50:14;;;;;;;6.75;4.20;;;;;;;8.75;37.58;101472.06;5007380;28;20136;-73
2022/04/02 17:53:05;;;;;;;7.57;3.50;;;;;;;8.72;35.27;101475.81;5009757;28;20076;-73
2022/04/02 17:55:39;;;;;;;4.50;2.50;;;;;;;8.74;38.09;101486.53;5005435;28;20054;-73
2022/04/02 17:58:06;;;;;;;3.42;2.42;;;;;;;8.75;37.94;101494.59;5006915;28;20053;-73
2022/04/02 18:00:34;;;;;;;4.00;2.58;;;;;;;8.76;38.02;101495.47;5003757;28;20076;-73
2022/04/02 18:03:03;;;;;;;4.57;2.72;;;;;;;8.77;37.49;101500.81;5005578;28;20456;-73
2022/04/02 18:05:33;;;;;;;4.45;2.83;;;;;;;8.77;37.79;101503.53;5007436;28;20056;-73
2022/04/02 18:08:01;;;;;;;5.10;2.97;;;;;;;8.78;38.00;101512.53;5008243;28;20104;-73
2022/04/02 18:10:29;;;;;;;4.18;3.00;;;;;;;8.78;37.86;101523.34;5008115;28;20046;-73
2022/04/02 18:12:56;;;;;;;5.10;3.10;;;;;;;8.77;37.96;101522.47;5009659;28;20099;-73
2022/04/02 18:15:24;;;;;;;5.38;3.70;;;;;;;8.78;37.73;101517.94;5011560;28;20046;-73
2022/04/02 18:17:51;;;;;;;5.45;3.20;;;;;;;8.76;37.48;101517.13;5012790;28;20085;-73
2022/04/02 18:20:17;;;;;;;5.32;3.15;;;;;;;8.76;37.63;101527.97;5004379;28;20192;-73
2022/04/02 18:22:44;;;;;;;5.07;2.90;;;;;;;8.75;37.83;101521.66;5008965;28;20050;-73
2022/04/02 18:25:12;;;;;;;4.47;2.80;;;;;;;8.75;37.24;101524.38;5007801;28;20053;-73
2022/04/02 18:27:40;;;;;;;4.63;2.65;;;;;;;8.72;37.33;101532.66;5013087;28;20104;-73
2022/04/02 18:30:12;;;;;;;3.67;2.22;;;;;;;8.74;36.63;101530.75;5011472;28;20108;-73
2022/04/02 18:32:39;;;;;;;4.87;2.80;;;;;;;8.70;37.76;101531.84;5010297;28;20049;-73
2022/04/02 18:35:08;;;;;;;4.18;2.80;;;;;;;8.71;37.52;101540.84;5009844;28;20057;-73
2022/04/02 18:37:35;;;;;;;4.43;2.92;;;;;;;8.69;37.41;101540.94;5008575;28;20050;-73
2022/04/02 18:40:04;;;;;;;5.03;2.78;;;;;;;8.69;37.41;101554.47;5010541;28;20108;-73
2022/04/02 18:42:32;;;;;;;5.97;2.97;;;;;;;8.68;37.26;101552.69;5011518;28;20104;-73
2022/04/02 18:44:59;;;;;;;50.55;26.92;;;;;;;8.67;38.41;101556.34;5009549;28;20079;-72
2022/04/02 18:47:25;;;;;;;16.70;10.75;;;;;;;8.70;38.61;101553.50;5013538;28;20061;-73
2022/04/02 18:49:52;;;;;;;11.13;7.53;;;;;;;8.73;38.38;101556.06;5011224;28;20062;-73
2022/04/02 18:52:20;;;;;;;9.50;5.82;;;;;;;8.78;38.29;101566.69;5013056;28;20128;-73
2022/04/02 18:54:47;;;;;;;6.30;4.35;;;;;;;8.80;38.08;101563.91;5007149;28;20046;-73
2022/04/02 18:57:14;;;;;;;5.97;3.70;;;;;;;8.82;38.25;101568.28;5011603;28;20509;-73
2022/04/02 18:59:40;;;;;;;6.97;3.80;;;;;;;8.84;38.06;101576.31;5010612;28;20045;-73
2022/04/02 19:02:07;;;;;;;6.22;3.70;;;;;;;8.84;37.83;101573.63;5010047;28;20046;-73
2022/04/02 19:04:34;;;;;;;7.47;4.05;;;;;;;8.85;37.93;101578.09;5011166;28;20058;-74
2022/04/02 19:07:00;;;;;;;5.20;3.53;;;;;;;8.83;37.85;101583.56;5010709;28;20112;-74
2022/04/02 19:09:28;;;;;;;4.65;3.15;;;;;;;8.84;37.95;101589.88;5005045;28;20081;-73
2022/04/02 19:11:55;;;;;;;5.38;3.08;;;;;;;8.81;37.50;101590.03;5012121;28;20092;-73
2022/04/02 19:14:21;;;;;;;5.10;3.05;;;;;;;8.78;37.01;101594.63;5010361;28;20543;-73
2022/04/02 19:16:48;;;;;;;5.00;2.83;;;;;;;8.77;37.13;101598.28;5005467;28;20076;-73
2022/04/02 19:19:15;;;;;;;4.22;2.58;;;;;;;8.74;37.38;101601.13;5010848;28;20064;-73
2022/04/02 19:21:41;;;;;;;3.90;2.47;;;;;;;8.73;37.24;101607.50;5025370;28;20104;-74
2022/04/02 19:24:08;;;;;;;5.47;2.83;;;;;;;8.71;37.07;101606.72;5021869;28;20394;-73
2022/04/02 19:26:35;;;;;;;4.40;2.75;;;;;;;8.69;37.29;101608.59;5011069;28;20104;-73
2022/04/02 19:29:06;;;;;;;5.03;2.92;;;;;;;8.68;37.06;101612.25;5001008;28;20054;-73
2022/04/02 19:31:33;;;;;;;4.95;2.60;;;;;;;8.65;37.35;101615.09;5011116;28;20108;-73
2022/04/02 19:34:01;;;;;;;4.43;2.75;;;;;;;8.63;37.27;101614.31;5009950;28;20524;-73
2022/04/02 19:36:28;;;;;;;3.58;2.35;;;;;;;8.62;37.30;101617.97;5010178;28;20065;-73
2022/04/02 19:38:57;;;;;;;4.97;2.67;;;;;;;8.61;37.18;101621.63;5003770;28;20108;-73
2022/04/02 19:41:24;;;;;;;8.38;4.47;;;;;;;8.60;37.42;101624.38;5002980;28;20109;-73
2022/04/02 19:43:56;;;;;;;13.80;8.10;;;;;;;8.58;37.15;101631.69;4994088;28;20201;-73
2022/04/02 19:46:27;;;;;;;13.23;8.20;;;;;;;8.56;37.48;101633.63;5002617;28;20054;-73
2022/04/02 19:48:59;;;;;;;11.00;6.38;;;;;;;8.57;36.96;101638.06;5010252;28;20504;-73
2022/04/02 19:51:27;;;;;;;9.30;6.05;;;;;;;8.55;37.48;101634.56;5010505;28;20057;-73
2022/04/02 19:53:55;;;;;;;8.05;5.35;;;;;;;8.54;37.46;101636.38;5003684;28;20077;-73
2022/04/02 19:56:22;;;;;;;6.28;4.20;;;;;;;8.53;37.68;101641.88;5008410;28;20069;-73
2022/04/02 19:58:48;;;;;;;6.68;4.28;;;;;;;8.52;37.49;101643.69;5002921;28;20081;-73
2022/04/02 20:01:18;;;;;;;5.90;3.63;;;;;;;8.51;37.51;101641.94;5007568;28;20057;-73
2022/04/02 20:03:45;;;;;;;5.00;3.28;;;;;;;8.51;37.52;101651.88;5008273;28;20058;-74
2022/04/02 20:06:11;;;;;;;4.45;2.85;;;;;;;8.49;37.78;101651.94;5009158;28;20042;-73
2022/04/02 20:08:40;;;;;;;4.18;2.60;;;;;;;8.49;37.82;101648.34;5007916;28;20054;-73
2022/04/02 20:11:11;;;;;;;4.30;2.90;;;;;;;8.50;36.90;101647.41;5000644;28;20050;-73
2022/04/02 20:13:39;;;;;;;4.20;2.42;;;;;;;8.48;37.39;101649.31;5007494;28;20107;-73
2022/04/02 20:16:06;;;;;;;4.47;2.60;;;;;;;8.47;37.46;101651.16;5008032;28;20483;-74
2022/04/02 20:18:33;;;;;;;3.65;2.70;;;;;;;8.46;37.54;101651.22;5010270;28;20062;-73
2022/04/02 20:21:00;;;;;;;4.20;2.83;;;;;;;8.46;37.80;101659.34;5009771;28;20116;-73
2022/04/02 20:23:27;;;;;;;5.07;3.10;;;;;;;8.44;37.78;101656.69;5008143;28;20115;-73
2022/04/02 20:25:54;;;;;;;4.90;2.88;;;;;;;8.43;37.81;101657.63;4993180;28;20077;-73
2022/04/02 20:28:21;;;;;;;4.22;2.90;;;;;;;8.43;37.44;101665.75;5002575;28;20054;-73
2022/04/02 20:30:48;;;;;;;4.50;3.10;;;;;;;8.43;37.79;101662.16;5010467;28;20466;-73
2022/04/02 20:33:15;;;;;;;4.85;3.13;;;;;;;8.40;37.55;101664.06;5007066;28;20137;-74
2022/04/02 20:35:42;;;;;;;5.28;3.22;;;;;;;8.40;37.76;101669.47;5002961;28;20045;-73
2022/04/02 20:38:09;;;;;;;4.20;3.08;;;;;;;8.39;37.58;101666.84;5004000;28;20078;-74
2022/04/02 20:40:36;;;;;;;5.75;2.90;;;;;;;8.38;37.43;101671.38;4982174;28;20092;-73
2022/04/02 20:43:04;;;;;;;4.70;2.90;;;;;;;8.37;37.55;101672.34;5006121;28;20112;-73
2022/04/02 20:45:31;;;;;;;4.97;2.55;;;;;;;8.35;37.99;101671.50;5007564;28;20049;-73
2022/04/02 20:47:59;;;;;;;5.53;3.03;;;;;;;8.35;37.53;101676.03;5009770;28;20493;-73
2022/04/02 20:50:29;;;;;;;7.03;3.60;;;;;;;8.34;37.62;101668.88;5009538;28;20084;-73
2022/04/02 20:52:56;;;;;;;6.53;3.30;;;;;;;8.33;37.71;101670.69;5004818;28;20580;-73
2022/04/02 20:55:23;;;;;;;5.88;3.00;;;;;;;8.32;37.75;101681.56;5009673;28;20058;-73
2022/04/02 20:57:50;;;;;;;4.40;2.83;;;;;;;8.31;37.58;101683.44;5010270;28;20123;-73
2022/04/02 21:00:17;;;;;;;5.18;3.28;;;;;;;8.30;37.62;101678.94;5006276;28;20058;-73
2022/04/02 21:02:43;;;;;;;5.25;3.10;;;;;;;8.29;37.63;101685.28;5010109;28;20081;-73
2022/04/02 21:05:10;;;;;;;5.28;3.35;;;;;;;8.30;37.56;101686.16;5007995;28;20049;-73
2022/04/02 21:07:37;;;;;;;5.07;3.08;;;;;;;8.29;37.63;101681.69;5009521;28;20049;-73
2022/04/02 21:10:04;;;;;;;4.40;2.75;;;;;;;8.28;37.60;101690.75;5003199;28;20137;-73
2022/04/02 21:12:31;;;;;;;5.13;3.05;;;;;;;8.27;37.57;101689.88;5008567;28;20056;-74
2022/04/02 21:14:59;;;;;;;5.20;3.10;;;;;;;8.27;37.65;101691.69;5008025;28;20049;-73
2022/04/02 21:17:27;;;;;;;4.15;2.70;;;;;;;8.28;37.55;101690.75;5004593;28;20097;-73
2022/04/02 21:19:54;;;;;;;4.40;2.85;;;;;;;8.26;37.76;101701.63;5007715;28;20054;-73
2022/04/02 21:22:21;;;;;;;4.70;2.70;;;;;;;8.27;37.55;101705.22;5002764;28;20046;-73
2022/04/02 21:24:53;;;;;;;3.35;2.58;;;;;;;8.24;37.51;101699.94;5007299;28;20509;-73
2022/04/02 21:27:20;;;;;;;4.95;2.90;;;;;;;8.26;37.62;101704.34;5007909;28;20453;-74
2022/04/02 21:29:47;;;;;;;4.43;2.80;;;;;;;8.26;37.84;101703.47;5009061;28;20084;-73
2022/04/02 21:32:13;;;;;;;5.10;3.08;;;;;;;8.25;37.44;101704.41;5013105;28;20100;-74
2022/04/02 21:34:41;;;;;;;4.10;2.70;;;;;;;8.24;37.55;101713.47;5000075;28;20151;-74
2022/04/02 21:37:08;;;;;;;4.95;3.05;;;;;;;8.23;37.27;101714.44;5011964;28;20081;-74
2022/04/02 21:39:35;;;;;;;4.53;2.72;;;;;;;8.23;37.34;101720.72;5007545;28;20065;-73
2022/04/02 21:42:05;;;;;;;4.30;2.70;;;;;;;8.22;37.53;101718.97;5008965;28;20054;-73
2022/04/02 21:44:31;;;;;;;4.90;3.08;;;;;;;8.21;37.28;101725.31;5008700;28;20046;-73
2022/04/02 21:46:58;;;;;;;4.60;2.63;;;;;;;8.23;37.59;101719.84;5008742;28;20069;-73
2022/04/02 21:49:26;;;;;;;4.07;2.67;;;;;;;8.22;37.65;101721.69;5004519;28;20050;-73
2022/04/02 21:51:53;;;;;;;5.47;2.95;;;;;;;8.21;37.60;101721.72;5007882;28;20481;-74
2022/04/02 21:54:20;;;;;;;4.53;2.95;;;;;;;8.21;37.36;101728.03;5005175;28;20046;-73
2022/04/02 21:56:47;;;;;;;4.07;2.72;;;;;;;8.22;37.60;101728.91;5003709;28;20127;-73
2022/04/02 21:59:34;;;;;;;4.35;2.47;;;;;;;8.20;37.82;101728.97;5007744;28;20509;-73
2022/04/02 22:02:01;;;;;;;4.10;2.72;;;;;;;8.21;37.50;101735.25;5009196;28;20050;-73